Time;durP1;ratioP1;P1;durP2;ratioP2;P2;SDS_P1;SDS_P2;PMS_P1;PMS_P2;Temp;Humidity;BMP_temperature;BMP_pressure;BME280_temperature;BME280_humidity;BME280_pressure;Samples;Min_cycle;Max_cycle;Signal;HPM_P1;HPM_P2
2022/06/18 00:01:33;;;;;;;3.40;3.10;;;;;;;;;;5053627;28;20441;-60
2022/06/18 00:04:00;;;;;;;3.20;3.00;;;;;;;;;;5053889;28;20450;-60
2022/06/18 00:06:28;;;;;;;2.90;2.70;;;;;;;;;;5053776;28;20486;-60
2022/06/18 00:08:55;;;;;;;4.90;3.17;;;;;;;;;;5053806;28;20452;-60
2022/06/18 00:14:07;;;;;;;3.20;2.90;;;;;;;;;;5053688;28;20439;-60
2022/06/18 00:16:35;;;;;;;3.80;3.27;;;;;;;;;;5053727;28;20444;-61
2022/06/18 00:19:02;;;;;;;3.73;3.47;;;;;;;;;;5053675;28;20459;-60
2022/06/18 00:21:31;;;;;;;3.53;3.33;;;;;;;;;;5053459;28;20448;-60
2022/06/18 00:23:58;;;;;;;3.20;3.00;;;;;;;;;;5053438;28;20803;-60
2022/06/18 00:26:25;;;;;;;3.53;3.23;;;;;;;;;;5053224;28;20511;-60
2022/06/18 00:28:51;;;;;;;4.30;3.70;;;;;;;;;;5053529;28;20970;-60
2022/06/18 00:31:19;;;;;;;3.00;2.80;;;;;;;;;;5053371;28;20456;-59
2022/06/18 00:33:46;;;;;;;3.30;3.00;;;;;;;;;;5053409;28;20873;-60
2022/06/18 00:36:14;;;;;;;5.80;3.43;;;;;;;;;;5053057;28;20448;-60
2022/06/18 00:38:44;;;;;;;3.30;2.90;;;;;;;;;;5053159;28;21015;-60
2022/06/18 00:41:16;;;;;;;4.93;3.03;;;;;;;;;;5053004;28;20448;-60
2022/06/18 00:43:45;;;;;;;4.70;3.17;;;;;;;;;;5053054;28;20480;-60
2022/06/18 00:46:13;;;;;;;3.13;2.93;;;;;;;;;;5053068;28;20482;-60
2022/06/18 00:48:44;;;;;;;4.23;3.00;;;;;;;;;;5053071;28;20970;-59
2022/06/18 00:51:15;;;;;;;2.97;2.77;;;;;;;;;;5052950;28;20808;-60
2022/06/18 00:53:46;;;;;;;3.00;2.80;;;;;;;;;;5052903;28;20470;-60
2022/06/18 00:56:15;;;;;;;3.43;3.13;;;;;;;;;;5052174;28;20939;-60
2022/06/18 00:58:45;;;;;;;3.20;2.50;;;;;;;;;;5053035;28;20476;-60
2022/06/18 01:01:14;;;;;;;3.53;2.70;;;;;;;;;;5052894;28;20427;-60
2022/06/18 01:03:43;;;;;;;3.93;3.60;;;;;;;;;;5052754;28;20446;-60
2022/06/18 01:06:12;;;;;;;2.80;2.60;;;;;;;;;;5052593;28;20483;-60
2022/06/18 01:08:40;;;;;;;3.30;3.10;;;;;;;;;;5052951;28;20452;-60
2022/06/18 01:11:11;;;;;;;3.33;3.10;;;;;;;;;;5052910;28;20456;-60
2022/06/18 01:13:39;;;;;;;3.33;3.00;;;;;;;;;;5052838;28;20448;-61
2022/06/18 01:16:07;;;;;;;5.10;3.07;;;;;;;;;;5052669;28;20451;-60
2022/06/18 01:18:35;;;;;;;3.10;2.90;;;;;;;;;;5052604;28;20458;-60
2022/06/18 01:21:04;;;;;;;4.33;2.70;;;;;;;;;;5052777;28;20453;-60
2022/06/18 01:23:35;;;;;;;2.83;2.63;;;;;;;;;;5052853;28;20472;-60
2022/06/18 01:26:03;;;;;;;3.20;3.00;;;;;;;;;;5052574;28;20472;-60
2022/06/18 01:28:30;;;;;;;4.23;3.13;;;;;;;;;;5052662;28;20448;-60
2022/06/18 01:30:57;;;;;;;2.93;2.70;;;;;;;;;;5052431;28;20452;-60
2022/06/18 01:33:25;;;;;;;2.77;2.57;;;;;;;;;;5052816;28;20452;-60
2022/06/18 01:35:53;;;;;;;3.10;2.90;;;;;;;;;;5052518;28;20555;-60
2022/06/18 01:38:23;;;;;;;3.80;2.93;;;;;;;;;;5052601;28;20483;-60
2022/06/18 01:40:53;;;;;;;2.60;2.40;;;;;;;;;;5052843;28;20448;-60
2022/06/18 01:43:23;;;;;;;6.63;3.20;;;;;;;;;;5052203;28;20506;-60
2022/06/18 01:45:53;;;;;;;3.30;3.10;;;;;;;;;;5052310;28;20815;-60
2022/06/18 01:48:22;;;;;;;3.90;2.80;;;;;;;;;;5052580;28;20448;-60
2022/06/18 01:50:50;;;;;;;3.40;2.67;;;;;;;;;;5052474;28;20455;-60
2022/06/18 01:53:19;;;;;;;3.90;3.10;;;;;;;;;;5052406;28;20444;-60
2022/06/18 01:55:47;;;;;;;2.87;2.67;;;;;;;;;;5052376;28;20452;-60
2022/06/18 01:58:15;;;;;;;3.40;3.20;;;;;;;;;;5052795;28;20989;-60
2022/06/18 02:00:44;;;;;;;2.80;2.60;;;;;;;;;;5052515;28;20475;-60
2022/06/18 02:03:11;;;;;;;2.83;2.63;;;;;;;;;;5052429;28;20840;-60
2022/06/18 02:05:38;;;;;;;3.13;2.93;;;;;;;;;;5052307;28;20444;-60
2022/06/18 02:08:06;;;;;;;3.23;3.03;;;;;;;;;;5055813;28;20469;-60
2022/06/18 02:10:37;;;;;;;3.77;3.57;;;;;;;;;;5055792;28;20448;-60
2022/06/18 02:13:05;;;;;;;3.20;3.00;;;;;;;;;;5056218;28;20880;-60
2022/06/18 02:15:34;;;;;;;3.37;3.07;;;;;;;;;;5055966;28;20575;-60
2022/06/18 02:18:05;;;;;;;5.53;2.83;;;;;;;;;;5056108;28;20456;-60
2022/06/18 02:20:36;;;;;;;3.10;2.80;;;;;;;;;;5055795;28;20448;-60
2022/06/18 02:23:03;;;;;;;5.00;3.20;;;;;;;;;;5055705;28;20468;-60
2022/06/18 02:25:31;;;;;;;3.00;2.67;;;;;;;;;;5055831;28;20447;-60
2022/06/18 02:28:00;;;;;;;3.43;3.20;;;;;;;;;;5055655;28;20574;-60
2022/06/18 02:30:29;;;;;;;2.60;2.40;;;;;;;;;;5055730;28;20833;-59
2022/06/18 02:32:59;;;;;;;11.60;4.20;;;;;;;;;;5055622;28;20478;-60
2022/06/18 02:35:28;;;;;;;3.10;2.77;;;;;;;;;;5055368;28;20452;-60
2022/06/18 02:37:56;;;;;;;2.90;2.70;;;;;;;;;;5055627;28;20777;-60
2022/06/18 02:40:24;;;;;;;3.30;3.10;;;;;;;;;;5055534;28;20459;-60
2022/06/18 02:42:53;;;;;;;2.83;2.73;;;;;;;;;;5055339;28;20511;-60
2022/06/18 02:45:21;;;;;;;3.90;3.00;;;;;;;;;;5055310;28;20886;-60
2022/06/18 02:47:49;;;;;;;3.67;2.60;;;;;;;;;;5055157;28;20486;-60
2022/06/18 02:50:17;;;;;;;3.10;2.83;;;;;;;;;;5055110;28;20452;-60
2022/06/18 02:52:47;;;;;;;5.77;3.00;;;;;;;;;;5055296;28;20536;-61
2022/06/18 02:55:19;;;;;;;2.80;2.60;;;;;;;;;;5055291;28;20452;-60
2022/06/18 02:57:48;;;;;;;3.47;3.17;;;;;;;;;;5055260;28;20460;-60
2022/06/18 03:00:16;;;;;;;4.03;3.10;;;;;;;;;;5053722;28;20449;-60
2022/06/18 03:02:43;;;;;;;3.30;2.60;;;;;;;;;;5054880;28;20448;-60
2022/06/18 03:05:17;;;;;;;3.50;3.13;;;;;;;;;;5054848;28;20448;-60
2022/06/18 03:07:46;;;;;;;10.67;5.00;;;;;;;;;;5054985;28;20487;-60
2022/06/18 03:12:58;;;;;;;3.73;3.43;;;;;;;;;;5054825;28;20447;-60
2022/06/18 03:15:25;;;;;;;3.63;3.33;;;;;;;;;;5054706;28;20501;-60
2022/06/18 03:17:52;;;;;;;4.37;3.20;;;;;;;;;;5054111;28;20442;-59
2022/06/18 03:20:20;;;;;;;5.60;3.77;;;;;;;;;;5054749;28;20448;-59
2022/06/18 03:22:49;;;;;;;3.70;3.07;;;;;;;;;;5054972;28;20947;-59
2022/06/18 03:25:16;;;;;;;4.87;3.70;;;;;;;;;;5054660;28;20962;-59
2022/06/18 03:27:43;;;;;;;3.20;2.90;;;;;;;;;;5054252;28;20587;-60
2022/06/18 03:30:11;;;;;;;4.57;3.30;;;;;;;;;;5054442;28;20973;-60
2022/06/18 03:32:38;;;;;;;3.80;3.50;;;;;;;;;;5054594;28;20483;-59
2022/06/18 03:35:06;;;;;;;2.80;2.50;;;;;;;;;;5054347;28;20974;-60
2022/06/18 03:37:33;;;;;;;3.50;2.60;;;;;;;;;;5054294;28;20451;-59
2022/06/18 03:40:01;;;;;;;5.53;2.63;;;;;;;;;;5054162;28;20444;-60
2022/06/18 03:42:28;;;;;;;3.20;2.90;;;;;;;;;;5054013;28;20452;-60
2022/06/18 03:44:55;;;;;;;3.67;2.83;;;;;;;;;;5054482;28;20454;-60
2022/06/18 03:47:23;;;;;;;6.17;3.60;;;;;;;;;;5054336;28;20851;-60
2022/06/18 03:49:49;;;;;;;3.03;2.83;;;;;;;;;;5054199;28;20449;-60
2022/06/18 03:52:16;;;;;;;4.83;3.63;;;;;;;;;;5054102;28;20484;-60
2022/06/18 03:54:43;;;;;;;3.30;3.00;;;;;;;;;;5053829;28;20940;-60
2022/06/18 03:57:15;;;;;;;6.00;3.17;;;;;;;;;;5054158;28;20544;-60
2022/06/18 03:59:42;;;;;;;5.37;3.70;;;;;;;;;;5054303;28;20872;-60
2022/06/18 04:02:09;;;;;;;3.87;3.47;;;;;;;;;;5053989;28;20423;-60
2022/06/18 04:04:36;;;;;;;3.40;3.20;;;;;;;;;;5053765;28;20452;-60
2022/06/18 04:07:03;;;;;;;3.73;3.43;;;;;;;;;;5053702;28;20889;-59
2022/06/18 04:09:30;;;;;;;8.30;4.50;;;;;;;;;;5053612;28;20539;-60
2022/06/18 04:11:58;;;;;;;8.07;4.00;;;;;;;;;;5053916;28;20444;-60
2022/06/18 04:14:27;;;;;;;4.80;3.03;;;;;;;;;;5053847;28;20499;-60
2022/06/18 04:16:53;;;;;;;3.27;2.97;;;;;;;;;;5053622;28;20455;-59
2022/06/18 04:19:20;;;;;;;5.07;3.30;;;;;;;;;;5053549;28;20535;-59
2022/06/18 04:21:47;;;;;;;6.90;3.37;;;;;;;;;;5053385;28;20451;-60
2022/06/18 04:24:14;;;;;;;5.13;3.30;;;;;;;;;;5053622;28;20451;-59
2022/06/18 04:26:41;;;;;;;3.03;2.83;;;;;;;;;;5053509;28;20455;-59
2022/06/18 04:29:08;;;;;;;3.60;3.33;;;;;;;;;;5053528;28;20444;-59
2022/06/18 04:31:36;;;;;;;2.80;2.60;;;;;;;;;;5053252;28;20952;-59
2022/06/18 04:34:04;;;;;;;2.80;2.60;;;;;;;;;;5053250;28;21030;-59
2022/06/18 04:36:32;;;;;;;3.93;2.63;;;;;;;;;;5053066;28;20448;-60
2022/06/18 04:38:59;;;;;;;2.77;2.57;;;;;;;;;;5053387;28;20452;-59
2022/06/18 04:41:26;;;;;;;3.90;2.90;;;;;;;;;;5053235;28;20423;-60
2022/06/18 04:43:53;;;;;;;2.70;2.50;;;;;;;;;;5052983;28;20534;-59
2022/06/18 04:46:20;;;;;;;3.50;3.20;;;;;;;;;;5052966;28;20441;-59
2022/06/18 04:48:49;;;;;;;3.43;2.60;;;;;;;;;;5052901;28;20486;-60
2022/06/18 04:51:15;;;;;;;2.77;2.57;;;;;;;;;;5052953;28;20452;-60
2022/06/18 04:53:42;;;;;;;2.60;2.50;;;;;;;;;;5053078;28;20458;-59
2022/06/18 04:56:10;;;;;;;2.50;2.30;;;;;;;;;;5053033;28;20455;-59
2022/06/18 04:58:37;;;;;;;4.23;2.70;;;;;;;;;;5053031;28;20451;-60
2022/06/18 05:01:04;;;;;;;2.47;2.30;;;;;;;;;;5052895;28;20451;-59
2022/06/18 05:03:31;;;;;;;2.43;2.23;;;;;;;;;;5052698;28;21020;-60
2022/06/18 05:05:59;;;;;;;4.37;2.27;;;;;;;;;;5052965;28;20795;-60
2022/06/18 05:08:27;;;;;;;1.97;1.87;;;;;;;;;;5052904;28;20483;-60
2022/06/18 05:10:54;;;;;;;2.60;2.40;;;;;;;;;;5052809;28;20466;-60
2022/06/18 05:13:21;;;;;;;2.20;2.10;;;;;;;;;;5052803;28;20458;-60
2022/06/18 05:15:49;;;;;;;8.53;2.63;;;;;;;;;;5052543;28;20448;-60
2022/06/18 05:18:17;;;;;;;3.40;1.90;;;;;;;;;;5052714;28;20804;-60
2022/06/18 05:20:44;;;;;;;2.60;2.40;;;;;;;;;;5052728;28;20448;-60
2022/06/18 05:23:15;;;;;;;4.17;2.30;;;;;;;;;;5052808;28;20456;-60
2022/06/18 05:25:42;;;;;;;3.27;2.20;;;;;;;;;;5052777;28;20470;-60
2022/06/18 05:28:10;;;;;;;2.90;2.30;;;;;;;;;;5052507;28;20511;-60
2022/06/18 05:30:37;;;;;;;2.33;2.10;;;;;;;;;;5052471;28;20452;-60
2022/06/18 05:33:04;;;;;;;2.10;2.00;;;;;;;;;;5052641;28;20455;-60
2022/06/18 05:35:32;;;;;;;2.13;1.90;;;;;;;;;;5052527;28;20460;-60
2022/06/18 05:37:59;;;;;;;2.23;2.07;;;;;;;;;;5052555;28;20462;-60
2022/06/18 05:40:27;;;;;;;2.90;2.07;;;;;;;;;;5052487;28;20535;-59
2022/06/18 05:42:54;;;;;;;3.00;1.80;;;;;;;;;;5055663;28;20983;-60
2022/06/18 05:45:22;;;;;;;1.90;1.80;;;;;;;;;;5056506;28;20448;-60
2022/06/18 05:47:49;;;;;;;2.23;2.00;;;;;;;;;;5056297;28;20990;-60
2022/06/18 05:50:17;;;;;;;2.33;2.10;;;;;;;;;;5056496;28;20823;-60
2022/06/18 05:52:44;;;;;;;2.00;1.90;;;;;;;;;;5056429;28;20455;-60
2022/06/18 05:55:11;;;;;;;1.93;1.53;;;;;;;;;;5056190;28;20535;-60
2022/06/18 05:57:46;;;;;;;2.50;1.60;;;;;;;;;;5056100;28;20452;-60
2022/06/18 06:00:15;;;;;;;1.43;1.30;;;;;;;;;;5056324;28;20458;-60
2022/06/18 06:02:42;;;;;;;1.83;1.73;;;;;;;;;;5056272;28;20483;-60
2022/06/18 06:05:09;;;;;;;1.63;1.47;;;;;;;;;;5056077;28;20444;-60
2022/06/18 06:07:36;;;;;;;2.43;1.70;;;;;;;;;;5055850;28;20967;-60
2022/06/18 06:12:52;;;;;;;2.00;1.80;;;;;;;;;;5055979;28;20946;-60
2022/06/18 06:15:19;;;;;;;1.53;1.43;;;;;;;;;;5055926;28;20521;-60
2022/06/18 06:17:46;;;;;;;3.60;1.10;;;;;;;;;;5055876;28;20451;-60
2022/06/18 06:20:17;;;;;;;2.93;1.27;;;;;;;;;;5056288;28;20448;-60
2022/06/18 06:22:44;;;;;;;7.13;1.73;;;;;;;;;;5055590;28;20451;-60
2022/06/18 06:25:11;;;;;;;1.60;1.50;;;;;;;;;;5055856;28;20450;-60
2022/06/18 06:27:38;;;;;;;1.20;1.10;;;;;;;;;;5055704;28;20579;-60
2022/06/18 06:30:07;;;;;;;1.20;1.10;;;;;;;;;;5055682;28;20455;-60
2022/06/18 06:32:34;;;;;;;1.53;1.30;;;;;;;;;;5055608;28;20501;-60
2022/06/18 06:35:01;;;;;;;2.33;1.40;;;;;;;;;;5055116;28;20479;-60
2022/06/18 06:37:28;;;;;;;1.20;1.10;;;;;;;;;;5055467;28;20449;-60
2022/06/18 06:39:55;;;;;;;2.57;1.20;;;;;;;;;;5055446;28;20479;-60
2022/06/18 06:42:22;;;;;;;1.47;1.37;;;;;;;;;;5055483;28;20910;-60
2022/06/18 06:44:49;;;;;;;1.57;1.30;;;;;;;;;;5055346;28;20455;-60
2022/06/18 06:47:17;;;;;;;1.30;1.20;;;;;;;;;;5055759;28;20865;-60
2022/06/18 06:49:44;;;;;;;1.77;1.30;;;;;;;;;;5055064;28;20467;-60
2022/06/18 06:52:11;;;;;;;1.40;1.30;;;;;;;;;;5054961;28;20519;-61
2022/06/18 06:54:38;;;;;;;2.07;1.50;;;;;;;;;;5054454;28;20877;-60
2022/06/18 06:57:22;;;;;;;3.90;1.40;;;;;;;;;;5055133;28;20452;-60
2022/06/18 06:59:49;;;;;;;1.50;1.40;;;;;;;;;;5055073;28;20452;-60
2022/06/18 07:02:19;;;;;;;1.33;1.23;;;;;;;;;;5054873;28;20448;-60
2022/06/18 07:04:46;;;;;;;2.70;1.23;;;;;;;;;;5055048;28;20444;-60
2022/06/18 07:07:13;;;;;;;2.50;1.20;;;;;;;;;;5054971;28;20451;-60
2022/06/18 07:09:40;;;;;;;4.73;1.50;;;;;;;;;;5055058;28;20479;-60
2022/06/18 07:12:08;;;;;;;1.57;1.10;;;;;;;;;;5054887;28;20850;-60
2022/06/18 07:14:36;;;;;;;3.47;2.23;;;;;;;;;;5054586;28;20491;-60
2022/06/18 07:17:04;;;;;;;1.80;1.40;;;;;;;;;;5054805;28;20547;-60
2022/06/18 07:19:32;;;;;;;2.10;1.40;;;;;;;;;;5054819;28;20466;-60
2022/06/18 07:21:59;;;;;;;1.30;1.13;;;;;;;;;;5054722;28;20480;-60
2022/06/18 07:24:26;;;;;;;2.20;1.40;;;;;;;;;;5054356;28;20448;-60
2022/06/18 07:26:53;;;;;;;1.33;1.23;;;;;;;;;;5054501;28;20444;-60
2022/06/18 07:29:21;;;;;;;2.30;1.43;;;;;;;;;;5054242;28;20566;-60
2022/06/18 07:31:47;;;;;;;1.37;1.23;;;;;;;;;;5054260;28;20449;-60
2022/06/18 07:34:15;;;;;;;2.27;1.90;;;;;;;;;;5054646;28;20444;-60
2022/06/18 07:36:43;;;;;;;1.30;1.20;;;;;;;;;;5054627;28;20456;-60
2022/06/18 07:39:10;;;;;;;3.10;1.30;;;;;;;;;;5054361;28;20462;-60
2022/06/18 07:41:38;;;;;;;3.87;2.30;;;;;;;;;;5054286;28;20484;-60
2022/06/18 07:44:06;;;;;;;3.03;1.40;;;;;;;;;;5053862;28;20563;-60
2022/06/18 07:46:32;;;;;;;1.50;1.40;;;;;;;;;;5047558;28;20455;-60
2022/06/18 07:48:59;;;;;;;1.60;1.50;;;;;;;;;;5054089;28;20476;-60
2022/06/18 07:51:27;;;;;;;1.90;1.70;;;;;;;;;;5054023;28;20448;-60
2022/06/18 07:53:56;;;;;;;3.37;1.80;;;;;;;;;;5054003;28;20459;-60
2022/06/18 07:56:23;;;;;;;2.47;1.60;;;;;;;;;;5053745;28;20871;-60
2022/06/18 07:58:50;;;;;;;4.97;2.00;;;;;;;;;;5054073;28;20454;-60
2022/06/18 08:01:17;;;;;;;1.77;1.67;;;;;;;;;;5053945;28;20531;-60
2022/06/18 08:03:44;;;;;;;1.87;1.60;;;;;;;;;;5053671;28;20452;-60
2022/06/18 08:06:11;;;;;;;1.90;1.80;;;;;;;;;;5053767;28;20448;-60
2022/06/18 08:08:38;;;;;;;1.50;1.40;;;;;;;;;;5053699;28;20472;-60
2022/06/18 08:11:08;;;;;;;2.40;1.73;;;;;;;;;;5053688;28;20495;-61
2022/06/18 08:13:35;;;;;;;1.57;1.47;;;;;;;;;;5053919;28;20562;-61
2022/06/18 08:16:02;;;;;;;6.57;1.70;;;;;;;;;;5053572;28;20452;-61
2022/06/18 08:18:29;;;;;;;2.60;1.47;;;;;;;;;;5053614;28;20464;-61
2022/06/18 08:20:56;;;;;;;1.63;1.53;;;;;;;;;;5053419;28;20873;-61
2022/06/18 08:23:23;;;;;;;2.53;1.70;;;;;;;;;;5053288;28;20448;-60
2022/06/18 08:25:50;;;;;;;1.80;1.70;;;;;;;;;;5053628;28;20455;-60
2022/06/18 08:28:19;;;;;;;3.00;2.23;;;;;;;;;;5053281;28;20805;-60
2022/06/18 08:30:46;;;;;;;4.03;1.80;;;;;;;;;;5053465;28;20456;-60
2022/06/18 08:33:13;;;;;;;1.70;1.60;;;;;;;;;;5053321;28;20483;-60
2022/06/18 08:35:40;;;;;;;2.33;2.03;;;;;;;;;;5053109;28;20563;-60
2022/06/18 08:38:07;;;;;;;1.93;1.83;;;;;;;;;;5053032;28;20539;-60
2022/06/18 08:40:44;;;;;;;2.00;1.90;;;;;;;;;;5053241;28;20449;-60
2022/06/18 08:43:17;;;;;;;2.40;1.50;;;;;;;;;;5053037;28;20835;-61
2022/06/18 08:45:49;;;;;;;1.90;1.80;;;;;;;;;;5053191;28;20452;-60
2022/06/18 08:48:27;;;;;;;2.17;2.00;;;;;;;;;;5052904;28;20910;-61
2022/06/18 08:50:58;;;;;;;1.90;1.80;;;;;;;;;;5053169;28;20452;-60
2022/06/18 08:53:39;;;;;;;2.10;2.00;;;;;;;;;;5052986;28;20452;-60
2022/06/18 08:56:09;;;;;;;4.27;2.13;;;;;;;;;;5053056;28;20452;-60
2022/06/18 08:58:41;;;;;;;3.73;2.00;;;;;;;;;;5052959;28;20968;-60
2022/06/18 09:01:12;;;;;;;2.20;1.90;;;;;;;;;;5052725;28;20551;-60
2022/06/18 09:03:47;;;;;;;3.27;2.80;;;;;;;;;;5052909;28;20459;-60
2022/06/18 09:06:19;;;;;;;2.23;2.03;;;;;;;;;;5052806;28;20539;-60
2022/06/18 09:08:54;;;;;;;2.40;1.70;;;;;;;;;;5052744;28;20480;-61
2022/06/18 09:11:27;;;;;;;2.50;1.83;;;;;;;;;;5052554;28;20959;-61
2022/06/18 09:13:57;;;;;;;2.00;1.80;;;;;;;;;;5052982;28;20444;-61
2022/06/18 09:16:26;;;;;;;2.20;2.00;;;;;;;;;;5052156;28;20451;-60
2022/06/18 09:18:54;;;;;;;2.87;2.13;;;;;;;;;;5052763;28;20448;-61
2022/06/18 09:21:24;;;;;;;2.40;1.83;;;;;;;;;;5052532;28;20552;-60
2022/06/18 09:23:53;;;;;;;1.80;1.70;;;;;;;;;;5052621;28;20457;-61
2022/06/18 09:26:22;;;;;;;5.53;2.30;;;;;;;;;;5052817;28;20487;-61
2022/06/18 09:28:54;;;;;;;1.70;1.60;;;;;;;;;;5052297;28;21014;-61
2022/06/18 09:31:24;;;;;;;3.27;1.80;;;;;;;;;;5052573;28;20967;-61
2022/06/18 09:33:55;;;;;;;2.17;2.07;;;;;;;;;;5052617;28;20457;-60
2022/06/18 09:36:25;;;;;;;2.40;2.20;;;;;;;;;;5052267;28;20543;-61
2022/06/18 09:38:53;;;;;;;2.10;2.00;;;;;;;;;;5052616;28;20484;-61
2022/06/18 09:41:27;;;;;;;6.40;1.80;;;;;;;;;;5052579;28;20448;-61
2022/06/18 09:43:57;;;;;;;3.07;1.70;;;;;;;;;;5052178;28;20917;-61
2022/06/18 09:46:26;;;;;;;4.87;2.23;;;;;;;;;;5052410;28;20452;-60
2022/06/18 09:48:54;;;;;;;2.10;1.90;;;;;;;;;;5052143;28;20479;-61
2022/06/18 09:51:26;;;;;;;3.23;1.73;;;;;;;;;;5052218;28;20950;-61
2022/06/18 09:53:53;;;;;;;2.20;1.97;;;;;;;;;;5052401;28;20465;-61
2022/06/18 09:56:24;;;;;;;3.90;2.17;;;;;;;;;;5052338;28;20910;-61
2022/06/18 09:58:55;;;;;;;2.00;1.90;;;;;;;;;;5052419;28;20756;-61
2022/06/18 10:01:27;;;;;;;4.53;2.30;;;;;;;;;;5052060;28;20808;-61
2022/06/18 10:06:55;;;;;;;7.80;5.20;;;;;;;;;;5052146;28;20437;-61
2022/06/18 10:09:23;;;;;;;4.77;1.83;;;;;;;;;;5052204;28;20512;-61
2022/06/18 10:11:50;;;;;;;2.10;1.83;;;;;;;;;;5051892;28;20457;-61
2022/06/18 10:14:19;;;;;;;3.97;1.90;;;;;;;;;;5052270;28;20455;-61
2022/06/18 10:16:53;;;;;;;1.80;1.70;;;;;;;;;;5052087;28;20451;-60
2022/06/18 10:19:28;;;;;;;3.00;1.83;;;;;;;;;;5052122;28;20480;-61
2022/06/18 10:21:58;;;;;;;2.23;2.03;;;;;;;;;;5052099;28;20542;-61
2022/06/18 10:24:28;;;;;;;4.03;2.23;;;;;;;;;;5052024;28;20807;-61
2022/06/18 10:26:58;;;;;;;5.53;2.23;;;;;;;;;;5052271;28;20536;-61
2022/06/18 10:29:28;;;;;;;1.90;1.80;;;;;;;;;;5055682;28;20853;-61
2022/06/18 10:32:05;;;;;;;3.13;1.90;;;;;;;;;;5055531;28;20491;-61
2022/06/18 10:34:40;;;;;;;2.27;2.07;;;;;;;;;;5055571;28;20539;-61
2022/06/18 10:37:13;;;;;;;2.00;1.73;;;;;;;;;;5055538;28;20458;-61
2022/06/18 10:39:44;;;;;;;1.50;1.40;;;;;;;;;;5055471;28;20812;-61
2022/06/18 10:42:18;;;;;;;2.53;2.27;;;;;;;;;;5055335;28;20459;-61
2022/06/18 10:44:51;;;;;;;3.20;2.17;;;;;;;;;;5054889;28;20515;-61
2022/06/18 10:47:19;;;;;;;3.40;1.90;;;;;;;;;;5055206;28;20471;-61
2022/06/18 10:49:47;;;;;;;2.37;2.17;;;;;;;;;;5055133;28;21003;-61
2022/06/18 10:52:18;;;;;;;2.30;1.83;;;;;;;;;;5055009;28;20948;-61
2022/06/18 10:54:45;;;;;;;1.83;1.60;;;;;;;;;;5055205;28;20530;-61
2022/06/18 10:57:23;;;;;;;3.23;1.90;;;;;;;;;;5055095;28;20758;-61
2022/06/18 10:59:50;;;;;;;9.17;2.67;;;;;;;;;;5054990;28;20537;-61
2022/06/18 11:02:18;;;;;;;2.27;2.17;;;;;;;;;;5055098;28;20449;-61
2022/06/18 11:04:53;;;;;;;4.33;2.00;;;;;;;;;;5055300;28;20547;-61
2022/06/18 11:07:23;;;;;;;3.77;1.90;;;;;;;;;;5055018;28;20821;-61
2022/06/18 11:09:55;;;;;;;2.60;2.47;;;;;;;;;;5054656;28;20555;-61
2022/06/18 11:12:23;;;;;;;5.30;2.23;;;;;;;;;;5054588;28;21034;-61
2022/06/18 11:14:50;;;;;;;2.07;1.87;;;;;;;;;;5054948;28;20448;-61
2022/06/18 11:17:21;;;;;;;4.30;2.00;;;;;;;;;;5054990;28;20448;-61
2022/06/18 11:19:49;;;;;;;4.00;2.10;;;;;;;;;;5054688;28;20955;-61
2022/06/18 11:22:19;;;;;;;2.93;2.13;;;;;;;;;;5054376;28;20463;-61
2022/06/18 11:24:52;;;;;;;2.37;2.00;;;;;;;;;;5054593;28;20455;-61
2022/06/18 11:27:19;;;;;;;5.20;2.30;;;;;;;;;;5054705;28;20448;-61
2022/06/18 11:29:48;;;;;;;2.43;2.23;;;;;;;;;;5054486;28;20476;-61
2022/06/18 11:32:18;;;;;;;2.73;1.70;;;;;;;;;;5054495;28;20448;-61
2022/06/18 11:34:46;;;;;;;3.07;2.00;;;;;;;;;;5054461;28;20543;-61
2022/06/18 11:37:15;;;;;;;2.23;2.13;;;;;;;;;;5053980;28;20448;-61
2022/06/18 11:39:44;;;;;;;3.87;2.10;;;;;;;;;;5053536;28;20454;-62
2022/06/18 11:42:15;;;;;;;2.43;2.23;;;;;;;;;;5054184;28;20954;-61
2022/06/18 11:44:45;;;;;;;3.17;2.27;;;;;;;;;;5053712;28;20994;-61
2022/06/18 11:47:15;;;;;;;2.83;2.23;;;;;;;;;;5054159;28;20445;-61
2022/06/18 11:49:46;;;;;;;5.43;2.03;;;;;;;;;;5053838;28;20475;-61
2022/06/18 11:52:16;;;;;;;5.30;2.30;;;;;;;;;;5054133;28;20448;-62
2022/06/18 11:54:52;;;;;;;4.13;2.40;;;;;;;;;;5054125;28;20456;-61
2022/06/18 11:57:23;;;;;;;3.60;2.23;;;;;;;;;;5053920;28;20447;-61
2022/06/18 11:59:53;;;;;;;2.90;2.37;;;;;;;;;;5053885;28;20452;-59
2022/06/18 12:02:22;;;;;;;3.07;1.60;;;;;;;;;;5053702;28;20452;-61
2022/06/18 12:04:52;;;;;;;2.47;2.27;;;;;;;;;;5053950;28;20448;-61
2022/06/18 12:07:22;;;;;;;7.40;2.60;;;;;;;;;;5053793;28;20459;-61
2022/06/18 12:09:50;;;;;;;3.40;2.87;;;;;;;;;;5053653;28;20484;-61
2022/06/18 12:12:29;;;;;;;3.00;2.13;;;;;;;;;;5053695;28;20455;-61
2022/06/18 12:14:59;;;;;;;3.57;2.23;;;;;;;;;;5053625;28;20483;-61
2022/06/18 12:17:28;;;;;;;2.50;2.30;;;;;;;;;;5054012;28;20804;-62
2022/06/18 12:19:57;;;;;;;4.57;2.10;;;;;;;;;;5053524;28;20452;-61
2022/06/18 12:22:29;;;;;;;6.63;2.80;;;;;;;;;;5053374;28;20459;-59
2022/06/18 12:25:06;;;;;;;6.67;2.57;;;;;;;;;;5053385;28;20474;-59
2022/06/18 12:27:35;;;;;;;4.53;2.53;;;;;;;;;;5053514;28;20490;-59
2022/06/18 12:30:05;;;;;;;6.80;2.20;;;;;;;;;;5053338;28;20510;-59
2022/06/18 12:32:36;;;;;;;3.27;2.17;;;;;;;;;;5053538;28;20564;-59
2022/06/18 12:35:10;;;;;;;4.40;2.13;;;;;;;;;;5053210;28;20454;-59
2022/06/18 12:37:43;;;;;;;5.83;2.67;;;;;;;;;;5053000;28;20455;-59
2022/06/18 12:40:15;;;;;;;10.20;3.30;;;;;;;;;;5053331;28;20453;-59
2022/06/18 12:42:44;;;;;;;4.80;2.57;;;;;;;;;;5053051;28;20456;-59
2022/06/18 12:45:15;;;;;;;5.97;2.30;;;;;;;;;;5053151;28;20448;-59
2022/06/18 12:47:47;;;;;;;7.10;2.70;;;;;;;;;;5052992;28;20455;-59
2022/06/18 12:50:17;;;;;;;6.13;2.80;;;;;;;;;;5052364;28;20480;-59
2022/06/18 12:52:45;;;;;;;6.83;2.50;;;;;;;;;;5052669;28;20449;-59
2022/06/18 12:55:22;;;;;;;5.50;2.53;;;;;;;;;;5052895;28;20535;-59
2022/06/18 12:57:53;;;;;;;6.23;3.07;;;;;;;;;;5052844;28;20451;-58
2022/06/18 13:00:22;;;;;;;4.40;2.50;;;;;;;;;;5052731;28;20452;-59
2022/06/18 13:03:13;;;;;;;6.90;3.30;;;;;;;;;;5052712;28;20456;-62
2022/06/18 13:05:43;;;;;;;8.70;3.00;;;;;;;;;;5032573;28;20453;-62
2022/06/18 13:08:15;;;;;;;8.27;2.83;;;;;;;;;;5052923;28;20494;-59
2022/06/18 13:10:50;;;;;;;9.00;3.00;;;37.50;52.50;;;;;;5052487;28;20481;-59
2022/06/18 13:13:31;;;;;;;13.03;3.70;;;37.30;52.00;;;;;;5052813;28;20451;-59
2022/06/18 13:16:03;;;;;;;14.23;3.30;;;37.30;52.30;;;;;;5053029;28;20472;-59
2022/06/18 13:18:33;;;;;;;5.83;2.93;;;37.20;52.20;;;;;;5052611;28;20445;-59
2022/06/18 13:21:02;;;;;;;5.13;2.70;;;37.20;52.10;;;;;;5052659;28;20719;-59
2022/06/18 13:29:11;;;;;;;11.00;3.00;;;37.20;52.40;;;;;;5052631;28;20946;-61
2022/06/18 13:31:45;;;;;;;3.80;2.80;;;37.20;52.30;;;;;;5052520;28;20481;-62
2022/06/18 13:34:19;;;;;;;8.80;3.50;;;37.20;52.30;;;;;;5052752;28;20441;-62
2022/06/18 13:36:55;;;;;;;10.50;3.20;;;37.20;52.20;;;;;;5052519;28;20803;-62
2022/06/18 13:39:30;;;;;;;17.67;3.40;;;37.20;51.40;;;;;;5052520;28;20455;-62
2022/06/18 13:42:07;;;;;;;13.50;3.67;;;37.20;51.90;;;;;;5052322;28;20450;-61
2022/06/18 13:44:55;;;;;;;7.37;3.17;;;37.00;51.70;;;;;;5052175;28;20486;-62
2022/06/18 13:47:30;;;;;;;7.70;2.73;;;36.80;51.30;;;;;;5052529;28;20475;-61
2022/06/18 13:50:05;;;;;;;12.97;3.10;;;36.70;51.10;;;;;;5052344;28;20476;-61
2022/06/18 13:52:39;;;;;;;6.03;2.90;;;36.60;51.60;;;;;;5052323;28;20452;-61
2022/06/18 13:55:06;;;;;;;11.73;2.80;;;36.50;51.40;;;;;;5052409;28;20449;-62
2022/06/18 13:57:41;;;;;;;8.90;3.43;;;36.40;52.00;;;;;;5052744;28;20458;-62
2022/06/18 14:00:19;;;;;;;5.47;3.13;;;36.50;52.10;;;;;;5052326;28;20455;-62
2022/06/18 14:02:54;;;;;;;7.97;3.20;;;36.80;51.70;;;;;;5053933;28;20451;-62
2022/06/18 14:05:33;;;;;;;6.37;3.00;;;36.70;52.00;;;;;;5055937;28;20444;-62
2022/06/18 14:07:59;;;;;;;5.93;3.10;;;36.80;52.50;;;;;;5056250;28;20448;-62
2022/06/18 14:10:29;;;;;;;9.97;3.40;;;36.80;51.40;;;;;;5055967;28;20472;-62
2022/06/18 14:13:01;;;;;;;5.27;3.50;;;36.70;52.00;;;;;;5055965;28;20449;-61
2022/06/18 14:15:32;;;;;;;6.17;3.10;;;36.70;51.60;;;;;;5055808;28;20448;-62
2022/06/18 14:18:00;;;;;;;4.07;3.20;;;36.60;52.20;;;;;;5055974;28;20451;-61
2022/06/18 14:20:29;;;;;;;10.07;3.20;;;36.60;51.50;;;;;;5055964;28;20518;-62
2022/06/18 14:23:02;;;;;;;9.20;2.77;;;36.70;52.10;;;;;;5055761;28;20944;-62
2022/06/18 14:25:41;;;;;;;12.30;3.40;;;36.60;51.80;;;;;;5055823;28;20449;-61
2022/06/18 14:28:20;;;;;;;7.20;3.57;;;36.60;52.10;;;;;;5055528;28;20444;-62
2022/06/18 14:30:52;;;;;;;7.10;3.40;;;36.50;52.60;;;;;;5055616;28;20519;-62
2022/06/18 14:33:26;;;;;;;11.80;3.57;;;36.70;52.00;;;;;;5055626;28;20539;-61
2022/06/18 14:36:01;;;;;;;7.13;3.17;;;36.80;51.40;;;;;;5055518;28;20463;-61
2022/06/18 14:38:33;;;;;;;4.67;3.00;;;36.80;51.00;;;;;;5055365;28;20918;-62
2022/06/18 14:44:00;;;;;;;11.57;3.90;;;36.70;50.50;;;;;;5055275;28;20471;-61
2022/06/18 14:46:47;;;;;;;9.40;3.40;;;36.80;51.40;;;;;;5055370;28;20445;-61
2022/06/18 14:49:30;;;;;;;9.23;3.40;;;36.80;50.20;;;;;;5055347;28;20448;-61
2022/06/18 14:52:20;;;;;;;7.27;3.87;;;36.70;50.20;;;;;;5055241;28;20481;-61
2022/06/18 14:55:08;;;;;;;6.90;2.87;;;36.60;50.30;;;;;;5055042;28;20448;-62
2022/06/18 14:57:56;;;;;;;5.93;3.00;;;36.50;50.70;;;;;;5055420;28;20939;-62
2022/06/18 15:00:41;;;;;;;10.30;3.20;;;36.40;51.10;;;;;;5055230;28;20548;-61
2022/06/18 15:03:14;;;;;;;5.23;3.10;;;36.20;51.10;;;;;;5055076;28;20459;-61